sensor_id;sensor_type;location;lat;lon;timestamp;P1;durP1;ratioP1;P2;durP2;ratioP2
9964;SDS011;5023;53.554;9.964;2022-08-19T00:00:34;8.77;;;7.72;;
9964;SDS011;5023;53.554;9.964;2022-08-19T00:05:37;8.45;;;7.65;;
9964;SDS011;5023;53.554;9.964;2022-08-19T00:10:40;11.57;;;8.57;;
9964;SDS011;5023;53.554;9.964;2022-08-19T00:15:45;8.43;;;7.20;;
9964;SDS011;5023;53.554;9.964;2022-08-19T00:20:49;9.57;;;7.75;;
9964;SDS011;5023;53.554;9.964;2022-08-19T00:25:51;9.07;;;8.27;;
9964;SDS011;5023;53.554;9.964;2022-08-19T00:30:53;14.10;;;12.80;;
9964;SDS011;5023;53.554;9.964;2022-08-19T00:35:57;14.25;;;12.82;;
9964;SDS011;5023;53.554;9.964;2022-08-19T00:41:00;13.02;;;11.70;;
9964;SDS011;5023;53.554;9.964;2022-08-19T00:46:02;13.85;;;11.70;;
9964;SDS011;5023;53.554;9.964;2022-08-19T00:51:06;14.48;;;12.88;;
9964;SDS011;5023;53.554;9.964;2022-08-19T00:56:08;20.58;;;17.05;;
9964;SDS011;5023;53.554;9.964;2022-08-19T01:01:11;18.08;;;16.30;;
9964;SDS011;5023;53.554;9.964;2022-08-19T01:06:15;23.52;;;18.63;;
9964;SDS011;5023;53.554;9.964;2022-08-19T01:11:17;23.60;;;20.45;;
9964;SDS011;5023;53.554;9.964;2022-08-19T01:16:20;21.60;;;19.20;;
9964;SDS011;5023;53.554;9.964;2022-08-19T01:21:27;20.45;;;18.38;;
9964;SDS011;5023;53.554;9.964;2022-08-19T01:26:37;22.38;;;18.25;;
9964;SDS011;5023;53.554;9.964;2022-08-19T01:31:41;20.10;;;16.33;;
9964;SDS011;5023;53.554;9.964;2022-08-19T01:36:44;19.73;;;17.65;;
9964;SDS011;5023;53.554;9.964;2022-08-19T01:41:50;19.52;;;17.30;;
9964;SDS011;5023;53.554;9.964;2022-08-19T01:46:54;19.13;;;17.05;;
9964;SDS011;5023;53.554;9.964;2022-08-19T01:51:56;19.77;;;17.13;;
9964;SDS011;5023;53.554;9.964;2022-08-19T01:57:05;20.30;;;18.10;;
9964;SDS011;5023;53.554;9.964;2022-08-19T02:02:09;21.13;;;18.20;;
9964;SDS011;5023;53.554;9.964;2022-08-19T02:07:12;23.15;;;19.50;;
9964;SDS011;5023;53.554;9.964;2022-08-19T02:12:15;27.33;;;21.70;;
9964;SDS011;5023;53.554;9.964;2022-08-19T02:17:17;22.23;;;18.85;;
9964;SDS011;5023;53.554;9.964;2022-08-19T02:22:20;24.00;;;18.83;;
9964;SDS011;5023;53.554;9.964;2022-08-19T02:27:24;24.80;;;19.08;;
9964;SDS011;5023;53.554;9.964;2022-08-19T02:32:26;23.48;;;18.75;;
9964;SDS011;5023;53.554;9.964;2022-08-19T02:37:30;22.88;;;18.33;;
9964;SDS011;5023;53.554;9.964;2022-08-19T02:42:47;29.70;;;20.52;;
9964;SDS011;5023;53.554;9.964;2022-08-19T02:47:49;29.77;;;20.30;;
9964;SDS011;5023;53.554;9.964;2022-08-19T02:52:52;28.88;;;20.63;;
9964;SDS011;5023;53.554;9.964;2022-08-19T02:57:55;33.30;;;22.88;;
9964;SDS011;5023;53.554;9.964;2022-08-19T03:03:01;31.67;;;21.15;;
9964;SDS011;5023;53.554;9.964;2022-08-19T03:08:06;31.05;;;23.35;;
9964;SDS011;5023;53.554;9.964;2022-08-19T03:13:15;36.03;;;22.50;;
9964;SDS011;5023;53.554;9.964;2022-08-19T03:18:18;45.72;;;27.15;;
9964;SDS011;5023;53.554;9.964;2022-08-19T03:23:21;48.90;;;28.88;;
9964;SDS011;5023;53.554;9.964;2022-08-19T03:28:26;45.30;;;28.63;;
9964;SDS011;5023;53.554;9.964;2022-08-19T03:33:31;43.10;;;26.13;;
9964;SDS011;5023;53.554;9.964;2022-08-19T03:38:35;47.15;;;27.17;;
9964;SDS011;5023;53.554;9.964;2022-08-19T03:43:40;41.72;;;28.02;;
9964;SDS011;5023;53.554;9.964;2022-08-19T03:48:43;37.35;;;27.02;;
9964;SDS011;5023;53.554;9.964;2022-08-19T03:53:46;37.35;;;26.17;;
9964;SDS011;5023;53.554;9.964;2022-08-19T03:58:50;37.03;;;26.50;;
9964;SDS011;5023;53.554;9.964;2022-08-19T04:03:53;39.78;;;26.42;;
9964;SDS011;5023;53.554;9.964;2022-08-19T04:08:57;36.25;;;25.60;;
9964;SDS011;5023;53.554;9.964;2022-08-19T04:14:02;42.78;;;26.58;;
9964;SDS011;5023;53.554;9.964;2022-08-19T04:19:04;40.60;;;25.67;;
9964;SDS011;5023;53.554;9.964;2022-08-19T04:24:08;41.30;;;27.50;;
9964;SDS011;5023;53.554;9.964;2022-08-19T04:29:13;40.40;;;27.30;;
9964;SDS011;5023;53.554;9.964;2022-08-19T04:34:18;36.75;;;28.95;;
9964;SDS011;5023;53.554;9.964;2022-08-19T04:39:23;33.50;;;26.83;;
9964;SDS011;5023;53.554;9.964;2022-08-19T04:44:49;34.83;;;26.50;;
9964;SDS011;5023;53.554;9.964;2022-08-19T04:49:52;36.30;;;27.35;;
9964;SDS011;5023;53.554;9.964;2022-08-19T04:54:54;31.48;;;23.50;;
9964;SDS011;5023;53.554;9.964;2022-08-19T04:59:57;29.35;;;23.27;;
9964;SDS011;5023;53.554;9.964;2022-08-19T05:05:00;28.85;;;22.90;;
9964;SDS011;5023;53.554;9.964;2022-08-19T05:10:02;29.58;;;23.80;;
9964;SDS011;5023;53.554;9.964;2022-08-19T05:15:07;31.38;;;22.92;;
9964;SDS011;5023;53.554;9.964;2022-08-19T05:20:11;26.98;;;21.08;;
9964;SDS011;5023;53.554;9.964;2022-08-19T05:25:30;26.85;;;20.90;;
9964;SDS011;5023;53.554;9.964;2022-08-19T05:30:43;25.27;;;20.40;;
9964;SDS011;5023;53.554;9.964;2022-08-19T05:35:48;21.27;;;17.83;;
9964;SDS011;5023;53.554;9.964;2022-08-19T05:40:51;23.80;;;18.25;;
9964;SDS011;5023;53.554;9.964;2022-08-19T05:45:55;22.15;;;18.38;;
9964;SDS011;5023;53.554;9.964;2022-08-19T05:51:03;22.00;;;17.13;;
9964;SDS011;5023;53.554;9.964;2022-08-19T05:56:09;23.98;;;17.45;;
9964;SDS011;5023;53.554;9.964;2022-08-19T06:01:14;21.45;;;16.63;;
9964;SDS011;5023;53.554;9.964;2022-08-19T06:06:21;24.40;;;17.15;;
9964;SDS011;5023;53.554;9.964;2022-08-19T06:11:32;20.15;;;17.00;;
9964;SDS011;5023;53.554;9.964;2022-08-19T06:16:38;24.17;;;18.67;;
9964;SDS011;5023;53.554;9.964;2022-08-19T06:21:42;20.88;;;15.50;;
9964;SDS011;5023;53.554;9.964;2022-08-19T06:26:51;18.92;;;16.88;;
9964;SDS011;5023;53.554;9.964;2022-08-19T06:31:59;19.10;;;16.23;;
9964;SDS011;5023;53.554;9.964;2022-08-19T06:37:04;23.95;;;15.45;;
9964;SDS011;5023;53.554;9.964;2022-08-19T06:42:06;22.20;;;15.48;;
9964;SDS011;5023;53.554;9.964;2022-08-19T06:47:16;23.48;;;17.33;;
9964;SDS011;5023;53.554;9.964;2022-08-19T06:52:20;22.92;;;17.63;;
9964;SDS011;5023;53.554;9.964;2022-08-19T06:57:24;23.15;;;17.02;;
9964;SDS011;5023;53.554;9.964;2022-08-19T07:02:29;23.08;;;17.30;;
9964;SDS011;5023;53.554;9.964;2022-08-19T07:07:32;21.02;;;16.20;;
9964;SDS011;5023;53.554;9.964;2022-08-19T07:12:34;24.58;;;18.65;;
9964;SDS011;5023;53.554;9.964;2022-08-19T07:17:38;21.85;;;15.98;;
9964;SDS011;5023;53.554;9.964;2022-08-19T07:22:43;16.48;;;14.65;;
9964;SDS011;5023;53.554;9.964;2022-08-19T07:27:48;18.30;;;13.30;;
9964;SDS011;5023;53.554;9.964;2022-08-19T07:32:58;15.05;;;13.50;;
9964;SDS011;5023;53.554;9.964;2022-08-19T07:38:02;16.50;;;12.98;;
9964;SDS011;5023;53.554;9.964;2022-08-19T07:43:04;13.95;;;11.13;;
9964;SDS011;5023;53.554;9.964;2022-08-19T07:48:08;13.77;;;12.18;;
9964;SDS011;5023;53.554;9.964;2022-08-19T07:53:14;11.90;;;9.48;;
9964;SDS011;5023;53.554;9.964;2022-08-19T07:58:17;10.25;;;9.13;;
9964;SDS011;5023;53.554;9.964;2022-08-19T08:03:22;10.85;;;8.38;;
9964;SDS011;5023;53.554;9.964;2022-08-19T08:08:39;14.18;;;9.07;;
9964;SDS011;5023;53.554;9.964;2022-08-19T08:13:59;11.27;;;9.75;;
9964;SDS011;5023;53.554;9.964;2022-08-19T08:19:07;10.52;;;9.48;;
9964;SDS011;5023;53.554;9.964;2022-08-19T08:24:31;14.68;;;12.15;;
9964;SDS011;5023;53.554;9.964;2022-08-19T08:29:39;14.07;;;11.05;;
9964;SDS011;5023;53.554;9.964;2022-08-19T08:34:53;12.98;;;11.38;;
9964;SDS011;5023;53.554;9.964;2022-08-19T08:40:16;23.60;;;19.25;;
9964;SDS011;5023;53.554;9.964;2022-08-19T08:45:22;16.17;;;14.43;;
9964;SDS011;5023;53.554;9.964;2022-08-19T08:50:29;17.55;;;13.00;;
9964;SDS011;5023;53.554;9.964;2022-08-19T08:55:36;16.02;;;13.40;;
9964;SDS011;5023;53.554;9.964;2022-08-19T09:00:43;19.15;;;15.40;;
9964;SDS011;5023;53.554;9.964;2022-08-19T09:05:50;19.52;;;16.35;;
9964;SDS011;5023;53.554;9.964;2022-08-19T09:10:58;19.50;;;16.42;;
9964;SDS011;5023;53.554;9.964;2022-08-19T09:16:10;19.33;;;15.55;;
9964;SDS011;5023;53.554;9.964;2022-08-19T09:21:20;20.58;;;16.17;;
9964;SDS011;5023;53.554;9.964;2022-08-19T09:26:25;20.15;;;15.38;;
9964;SDS011;5023;53.554;9.964;2022-08-19T09:31:29;17.23;;;14.77;;
9964;SDS011;5023;53.554;9.964;2022-08-19T09:36:34;15.85;;;12.02;;
9964;SDS011;5023;53.554;9.964;2022-08-19T09:41:39;16.88;;;12.13;;
9964;SDS011;5023;53.554;9.964;2022-08-19T09:46:41;12.13;;;10.82;;
9964;SDS011;5023;53.554;9.964;2022-08-19T09:51:45;14.45;;;12.52;;
9964;SDS011;5023;53.554;9.964;2022-08-19T09:56:50;14.70;;;12.13;;
9964;SDS011;5023;53.554;9.964;2022-08-19T10:01:55;15.65;;;13.90;;
9964;SDS011;5023;53.554;9.964;2022-08-19T10:06:59;15.00;;;13.23;;
9964;SDS011;5023;53.554;9.964;2022-08-19T10:12:02;18.20;;;14.10;;
9964;SDS011;5023;53.554;9.964;2022-08-19T10:17:05;15.55;;;13.73;;
9964;SDS011;5023;53.554;9.964;2022-08-19T10:22:09;21.70;;;14.82;;
9964;SDS011;5023;53.554;9.964;2022-08-19T10:27:16;17.10;;;15.38;;
9964;SDS011;5023;53.554;9.964;2022-08-19T10:32:19;20.02;;;17.08;;
9964;SDS011;5023;53.554;9.964;2022-08-19T10:37:23;19.75;;;17.65;;
9964;SDS011;5023;53.554;9.964;2022-08-19T10:43:20;16.27;;;14.68;;
9964;SDS011;5023;53.554;9.964;2022-08-19T10:48:22;17.67;;;15.15;;
9964;SDS011;5023;53.554;9.964;2022-08-19T10:54:03;17.48;;;15.38;;
9964;SDS011;5023;53.554;9.964;2022-08-19T10:59:05;20.58;;;16.55;;
9964;SDS011;5023;53.554;9.964;2022-08-19T11:04:11;18.13;;;16.23;;
9964;SDS011;5023;53.554;9.964;2022-08-19T11:09:23;21.05;;;16.45;;
9964;SDS011;5023;53.554;9.964;2022-08-19T11:14:28;20.42;;;15.20;;
9964;SDS011;5023;53.554;9.964;2022-08-19T11:19:33;18.70;;;16.70;;
9964;SDS011;5023;53.554;9.964;2022-08-19T11:24:40;18.35;;;16.05;;
9964;SDS011;5023;53.554;9.964;2022-08-19T11:29:42;19.48;;;16.33;;
9964;SDS011;5023;53.554;9.964;2022-08-19T11:34:48;16.92;;;14.90;;
9964;SDS011;5023;53.554;9.964;2022-08-19T11:39:52;20.05;;;15.93;;
9964;SDS011;5023;53.554;9.964;2022-08-19T11:44:54;33.05;;;29.73;;
9964;SDS011;5023;53.554;9.964;2022-08-19T11:50:01;18.75;;;16.75;;
9964;SDS011;5023;53.554;9.964;2022-08-19T11:55:12;16.05;;;13.98;;
9964;SDS011;5023;53.554;9.964;2022-08-19T12:00:22;15.48;;;13.98;;
9964;SDS011;5023;53.554;9.964;2022-08-19T12:05:24;17.63;;;15.82;;
9964;SDS011;5023;53.554;9.964;2022-08-19T12:10:28;14.45;;;13.15;;
9964;SDS011;5023;53.554;9.964;2022-08-19T12:15:30;17.90;;;14.43;;
9964;SDS011;5023;53.554;9.964;2022-08-19T12:20:50;14.82;;;13.43;;
9964;SDS011;5023;53.554;9.964;2022-08-19T12:25:56;15.38;;;13.93;;
9964;SDS011;5023;53.554;9.964;2022-08-19T12:31:01;14.35;;;13.05;;
9964;SDS011;5023;53.554;9.964;2022-08-19T12:36:04;16.45;;;14.85;;
9964;SDS011;5023;53.554;9.964;2022-08-19T12:41:11;14.77;;;13.35;;
9964;SDS011;5023;53.554;9.964;2022-08-19T12:46:15;19.25;;;17.27;;
9964;SDS011;5023;53.554;9.964;2022-08-19T12:51:18;14.98;;;13.57;;
9964;SDS011;5023;53.554;9.964;2022-08-19T12:56:24;14.95;;;13.55;;
9964;SDS011;5023;53.554;9.964;2022-08-19T13:01:26;15.13;;;13.82;;
9964;SDS011;5023;53.554;9.964;2022-08-19T13:06:32;15.98;;;13.25;;
9964;SDS011;5023;53.554;9.964;2022-08-19T13:11:37;16.00;;;14.38;;
9964;SDS011;5023;53.554;9.964;2022-08-19T13:16:39;13.48;;;12.18;;
9964;SDS011;5023;53.554;9.964;2022-08-19T13:21:43;15.85;;;14.38;;
9964;SDS011;5023;53.554;9.964;2022-08-19T13:26:52;15.77;;;14.27;;
9964;SDS011;5023;53.554;9.964;2022-08-19T13:31:54;14.73;;;13.48;;
9964;SDS011;5023;53.554;9.964;2022-08-19T13:37:14;15.83;;;14.43;;
9964;SDS011;5023;53.554;9.964;2022-08-19T13:42:38;15.32;;;13.82;;
9964;SDS011;5023;53.554;9.964;2022-08-19T13:47:40;14.30;;;13.00;;
9964;SDS011;5023;53.554;9.964;2022-08-19T13:52:44;14.55;;;13.15;;
9964;SDS011;5023;53.554;9.964;2022-08-19T13:57:51;17.23;;;15.50;;
9964;SDS011;5023;53.554;9.964;2022-08-19T14:02:54;13.35;;;12.20;;
9964;SDS011;5023;53.554;9.964;2022-08-19T14:08:00;13.68;;;12.48;;
9964;SDS011;5023;53.554;9.964;2022-08-19T14:13:08;16.90;;;15.40;;
9964;SDS011;5023;53.554;9.964;2022-08-19T14:18:13;16.67;;;15.10;;
9964;SDS011;5023;53.554;9.964;2022-08-19T14:23:16;15.45;;;14.07;;
9964;SDS011;5023;53.554;9.964;2022-08-19T14:28:19;17.95;;;16.25;;
9964;SDS011;5023;53.554;9.964;2022-08-19T14:33:22;15.35;;;13.95;;
9964;SDS011;5023;53.554;9.964;2022-08-19T14:38:24;17.95;;;16.35;;
9964;SDS011;5023;53.554;9.964;2022-08-19T14:43:28;15.32;;;14.02;;
9964;SDS011;5023;53.554;9.964;2022-08-19T14:48:30;15.52;;;14.05;;
9964;SDS011;5023;53.554;9.964;2022-08-19T14:53:33;14.85;;;13.52;;
9964;SDS011;5023;53.554;9.964;2022-08-19T14:58:57;16.10;;;14.60;;
9964;SDS011;5023;53.554;9.964;2022-08-19T15:04:01;20.20;;;18.40;;
9964;SDS011;5023;53.554;9.964;2022-08-19T15:09:03;15.07;;;13.85;;
9964;SDS011;5023;53.554;9.964;2022-08-19T15:14:30;13.02;;;11.75;;
9964;SDS011;5023;53.554;9.964;2022-08-19T15:20:46;15.52;;;13.95;;
9964;SDS011;5023;53.554;9.964;2022-08-19T15:26:21;21.08;;;18.95;;
9964;SDS011;5023;53.554;9.964;2022-08-19T15:32:05;16.92;;;15.52;;
9964;SDS011;5023;53.554;9.964;2022-08-19T15:38:22;13.23;;;12.13;;
9964;SDS011;5023;53.554;9.964;2022-08-19T15:43:52;21.25;;;19.25;;
9964;SDS011;5023;53.554;9.964;2022-08-19T15:49:46;11.65;;;10.65;;
9964;SDS011;5023;53.554;9.964;2022-08-19T15:54:49;11.50;;;10.60;;
9964;SDS011;5023;53.554;9.964;2022-08-19T16:00:11;11.65;;;10.50;;
9964;SDS011;5023;53.554;9.964;2022-08-19T16:05:38;10.40;;;9.60;;
9964;SDS011;5023;53.554;9.964;2022-08-19T16:10:58;10.48;;;9.52;;
9964;SDS011;5023;53.554;9.964;2022-08-19T16:16:36;10.40;;;9.32;;
9964;SDS011;5023;53.554;9.964;2022-08-19T16:22:13;8.93;;;8.30;;
9964;SDS011;5023;53.554;9.964;2022-08-19T16:27:55;9.95;;;8.75;;
9964;SDS011;5023;53.554;9.964;2022-08-19T16:33:34;9.45;;;8.55;;
9964;SDS011;5023;53.554;9.964;2022-08-19T16:39:13;8.65;;;7.95;;
9964;SDS011;5023;53.554;9.964;2022-08-19T16:45:19;10.80;;;9.80;;
9964;SDS011;5023;53.554;9.964;2022-08-19T16:50:58;8.38;;;7.57;;
9964;SDS011;5023;53.554;9.964;2022-08-19T16:56:37;8.68;;;7.15;;
9964;SDS011;5023;53.554;9.964;2022-08-19T17:02:35;7.70;;;7.10;;
9964;SDS011;5023;53.554;9.964;2022-08-19T17:07:57;7.40;;;6.80;;
9964;SDS011;5023;53.554;9.964;2022-08-19T17:13:59;7.93;;;7.15;;
9964;SDS011;5023;53.554;9.964;2022-08-19T17:20:15;7.90;;;7.30;;
9964;SDS011;5023;53.554;9.964;2022-08-19T17:25:50;8.20;;;7.50;;
9964;SDS011;5023;53.554;9.964;2022-08-19T17:31:28;9.57;;;8.68;;
9964;SDS011;5023;53.554;9.964;2022-08-19T17:37:45;8.00;;;7.40;;
9964;SDS011;5023;53.554;9.964;2022-08-19T17:42:50;8.57;;;7.80;;
9964;SDS011;5023;53.554;9.964;2022-08-19T17:54:38;12.45;;;11.38;;
9964;SDS011;5023;53.554;9.964;2022-08-19T17:59:41;13.35;;;11.93;;
9964;SDS011;5023;53.554;9.964;2022-08-19T18:05:21;12.10;;;11.10;;
9964;SDS011;5023;53.554;9.964;2022-08-19T18:17:33;12.82;;;11.65;;
9964;SDS011;5023;53.554;9.964;2022-08-19T18:23:08;12.40;;;11.30;;
9964;SDS011;5023;53.554;9.964;2022-08-19T18:28:29;13.82;;;12.63;;
9964;SDS011;5023;53.554;9.964;2022-08-19T18:34:06;17.52;;;16.02;;
9964;SDS011;5023;53.554;9.964;2022-08-19T18:39:58;15.55;;;14.25;;
9964;SDS011;5023;53.554;9.964;2022-08-19T18:45:18;13.52;;;12.27;;
9964;SDS011;5023;53.554;9.964;2022-08-19T18:50:41;17.73;;;16.02;;
9964;SDS011;5023;53.554;9.964;2022-08-19T18:56:42;13.70;;;12.50;;
9964;SDS011;5023;53.554;9.964;2022-08-19T19:02:15;13.65;;;12.52;;
9964;SDS011;5023;53.554;9.964;2022-08-19T19:14:45;15.80;;;14.32;;
9964;SDS011;5023;53.554;9.964;2022-08-19T19:21:17;14.80;;;13.60;;
9964;SDS011;5023;53.554;9.964;2022-08-19T19:26:38;17.40;;;15.88;;
9964;SDS011;5023;53.554;9.964;2022-08-19T19:32:19;15.55;;;14.15;;
9964;SDS011;5023;53.554;9.964;2022-08-19T19:38:36;18.88;;;17.02;;
9964;SDS011;5023;53.554;9.964;2022-08-19T19:44:36;17.23;;;15.45;;
9964;SDS011;5023;53.554;9.964;2022-08-19T19:50:15;17.50;;;15.95;;
9964;SDS011;5023;53.554;9.964;2022-08-19T19:56:08;14.98;;;13.68;;
9964;SDS011;5023;53.554;9.964;2022-08-19T20:08:09;19.75;;;18.02;;
9964;SDS011;5023;53.554;9.964;2022-08-19T20:14:17;19.45;;;17.42;;
9964;SDS011;5023;53.554;9.964;2022-08-19T20:20:16;19.98;;;17.73;;
9964;SDS011;5023;53.554;9.964;2022-08-19T20:26:24;22.48;;;20.38;;
9964;SDS011;5023;53.554;9.964;2022-08-19T20:32:03;20.17;;;18.27;;
9964;SDS011;5023;53.554;9.964;2022-08-19T20:38:02;19.65;;;17.77;;
9964;SDS011;5023;53.554;9.964;2022-08-19T20:43:41;22.02;;;19.73;;
9964;SDS011;5023;53.554;9.964;2022-08-19T20:49:38;23.80;;;21.70;;
9964;SDS011;5023;53.554;9.964;2022-08-19T20:55:14;23.50;;;21.25;;
9964;SDS011;5023;53.554;9.964;2022-08-19T21:00:53;24.20;;;22.00;;
9964;SDS011;5023;53.554;9.964;2022-08-19T21:07:10;23.02;;;20.88;;
9964;SDS011;5023;53.554;9.964;2022-08-19T21:12:47;37.80;;;33.45;;
9964;SDS011;5023;53.554;9.964;2022-08-19T21:18:28;19.85;;;18.05;;
9964;SDS011;5023;53.554;9.964;2022-08-19T21:35:08;18.73;;;17.02;;
9964;SDS011;5023;53.554;9.964;2022-08-19T21:41:06;19.98;;;18.17;;
9964;SDS011;5023;53.554;9.964;2022-08-19T21:46:43;19.90;;;18.02;;
9964;SDS011;5023;53.554;9.964;2022-08-19T21:52:24;21.45;;;19.17;;
9964;SDS011;5023;53.554;9.964;2022-08-19T21:57:59;19.48;;;17.80;;
9964;SDS011;5023;53.554;9.964;2022-08-19T22:03:01;20.65;;;18.75;;
9964;SDS011;5023;53.554;9.964;2022-08-19T22:08:39;19.60;;;17.80;;
9964;SDS011;5023;53.554;9.964;2022-08-19T22:14:16;21.90;;;19.83;;
9964;SDS011;5023;53.554;9.964;2022-08-19T22:19:52;20.20;;;18.30;;
9964;SDS011;5023;53.554;9.964;2022-08-19T22:25:29;18.30;;;16.63;;
9964;SDS011;5023;53.554;9.964;2022-08-19T22:31:06;18.10;;;16.40;;
9964;SDS011;5023;53.554;9.964;2022-08-19T22:36:48;16.70;;;15.20;;
9964;SDS011;5023;53.554;9.964;2022-08-19T22:42:33;16.88;;;15.32;;
9964;SDS011;5023;53.554;9.964;2022-08-19T22:48:09;17.02;;;15.43;;
9964;SDS011;5023;53.554;9.964;2022-08-19T22:53:40;17.20;;;15.50;;
9964;SDS011;5023;53.554;9.964;2022-08-19T22:59:17;15.70;;;14.20;;
9964;SDS011;5023;53.554;9.964;2022-08-19T23:05:11;12.75;;;11.52;;
9964;SDS011;5023;53.554;9.964;2022-08-19T23:10:33;15.43;;;13.98;;
9964;SDS011;5023;53.554;9.964;2022-08-19T23:16:09;15.48;;;13.98;;
9964;SDS011;5023;53.554;9.964;2022-08-19T23:22:09;22.13;;;19.73;;
9964;SDS011;5023;53.554;9.964;2022-08-19T23:27:50;15.98;;;14.48;;
9964;SDS011;5023;53.554;9.964;2022-08-19T23:33:14;15.02;;;13.52;;
9964;SDS011;5023;53.554;9.964;2022-08-19T23:39:31;11.30;;;10.18;;
9964;SDS011;5023;53.554;9.964;2022-08-19T23:45:13;14.35;;;12.88;;
9964;SDS011;5023;53.554;9.964;2022-08-19T23:50:51;13.45;;;11.73;;
9964;SDS011;5023;53.554;9.964;2022-08-19T23:56:49;10.52;;;9.48;;
